Flight Track Log - Related Links

Times and Time Zones

All times are in EDT time to prevent confusion due to time zone crossing. See the N586JB flight status page for this flight to view local times or setup timezone preferences in your user account.

Time Position Orientation Groundspeed Altitude Reporting Facility
EDT Latitude Longitude Course Direction KTS MPH feet Rate Location/Type
Mon 01:54:15 PM 40.6210 -73.7543 258° West  Level FlightAware Approximate
Mon 01:55:15 PM 40.5312 -73.6791 293° West  Level FlightAware Approximate
Mon 01:56:31 PM 40.5997 -73.8897 128° Southeast 209 241 4,000  Level New York Center
Mon 01:57:28 PM 40.5578 -73.8194 88° East 190 219 7,000 1,714 Climbing New York Center
Mon 01:58:30 PM 40.5600 -73.7294 139° Southeast 224 258 7,400 2,195 Climbing New York Center
Mon 01:59:31 PM 40.5072 -73.6700 142° Southeast 234 269 11,500 3,153 Climbing New York Center
Mon 02:00:28 PM 40.4403 -73.6017 143° Southeast 277 319 13,600 2,462 Climbing New York Center
Mon 02:02:07 PM 40.3306 -73.4936 164° South 305 351 17,900 2,720 Climbing Washington Center
Mon 02:03:09 PM 40.2508 -73.4633 177° South 293 337 20,900 2,361 Climbing Washington Center
Mon 02:04:09 PM 40.1611 -73.4578 195° South 304 350 22,700 1,220 Climbing Washington Center
Mon 02:05:07 PM 40.0742 -73.4875 213° Southwest 323 372 23,300 1,169 Climbing Washington Center
Mon 02:06:07 PM 39.9942 -73.5550 211° Southwest 322 371 25,000 1,736 Climbing Washington Center
Mon 02:07:08 PM 39.9097 -73.6222 212° Southwest 339 390 26,800 1,721 Climbing Washington Center
Mon 02:08:09 PM 39.8233 -73.6922 211° Southwest 361 415 28,500 1,488 Climbing Washington Center
Mon 02:09:09 PM 39.7389 -73.7592 212° Southwest 361 415 29,800 1,169 Climbing Washington Center
Mon 02:10:07 PM 39.6483 -73.8317 211° Southwest 374 430 30,800 1,210 Climbing Washington Center
Mon 02:11:08 PM 39.5578 -73.9011 212° Southwest 384 442 32,200 1,230 Climbing Washington Center
Mon 02:12:09 PM 39.4669 -73.9733 215° Southwest 384 442 33,300 1,311 Climbing Washington Center
Mon 02:13:07 PM 39.3806 -74.0503 221° Southwest 384 442 34,800 1,412 Climbing Washington Center
Mon 02:14:08 PM 39.3003 -74.1406 220° Southwest 384 442 36,100 893 Climbing Washington Center
Mon 02:15:08 PM 39.2181 -74.2306 221° Southwest 389 448 36,600 857 Climbing Washington Center
Mon 02:16:07 PM 39.1358 -74.3233 219° Southwest 395 455 37,800 700 Climbing Washington Center
Mon 02:17:08 PM 39.0533 -74.4103 220° Southwest 400 460 38,000 99 Climbing Washington Center
Mon 02:18:08 PM 38.9728 -74.4969 219° Southwest 400 460 38,000 -50 Level Washington Center
Mon 02:19:08 PM 38.8903 -74.5836 221° Southwest 400 460 37,900 -50 Descending Washington Center
Mon 02:20:09 PM 38.8075 -74.6753 220° Southwest 400 460 37,900  Level Washington Center
Mon 02:21:09 PM 38.7247 -74.7642 219° Southwest 400 460 37,900 51 Level Washington Center
Mon 02:22:07 PM 38.6378 -74.8556 219° Southwest 400 460 38,000 50 Climbing Washington Center
Mon 02:23:08 PM 38.5550 -74.9414 221° Southwest 400 460 38,000  Level Washington Center
Mon 02:24:08 PM 38.4700 -75.0347 219° Southwest 405 466 38,000  Level Washington Center
Mon 02:25:08 PM 38.3847 -75.1228 211° Southwest 399 459 38,000  Level Washington Center
Mon 02:26:09 PM 38.3039 -75.1842 208° Southwest 391 450 38,000  Level Washington Center
Mon 02:27:07 PM 38.2100 -75.2483 206° Southwest 386 444 38,000  Level Washington Center
Mon 02:28:08 PM 38.1144 -75.3067 207° Southwest 386 444 38,000  Level Washington Center
Mon 02:29:08 PM 38.0228 -75.3650 206° Southwest 381 438 38,000  Level Washington Center
Mon 02:30:07 PM 37.9289 -75.4233 208° Southwest 381 438 38,000  Level Washington Center
Mon 02:31:08 PM 37.8331 -75.4867 205° Southwest 381 438 38,000  Level Washington Center
Mon 02:32:09 PM 37.7372 -75.5444 207° Southwest 386 444 38,000  Level Washington Center
Mon 02:33:09 PM 37.6392 -75.6075 206° Southwest 386 444 38,000  Level Washington Center
Mon 02:34:07 PM 37.5411 -75.6678 207° Southwest 392 451 38,000  Level Washington Center
Mon 02:35:08 PM 37.4431 -75.7306 206° Southwest 392 451 38,000  Level Washington Center
Mon 02:36:08 PM 37.3428 -75.7931 207° Southwest 392 451 38,000  Level Washington Center
Mon 02:37:07 PM 37.2447 -75.8553 206° Southwest 392 451 38,000  Level Washington Center
Mon 02:38:07 PM 37.1444 -75.9175 206° Southwest 397 457 38,000  Level Washington Center
Mon 02:39:08 PM 37.0419 -75.9794 204° Southwest 402 463 38,000  Level Washington Center
Mon 02:40:08 PM 36.9272 -76.0439 208° Southwest 411 473 38,000  Level Washington Center
Mon 02:41:09 PM 36.8289 -76.1083 206° Southwest 411 473 38,000  Level Washington Center
Mon 02:42:09 PM 36.7283 -76.1697 208° Southwest 405 466 38,000  Level Washington Center
Mon 02:43:07 PM 36.6278 -76.2364 206° Southwest 405 466 38,000  Level Washington Center
Mon 02:44:07 PM 36.5294 -76.2950 206° Southwest 405 466 38,000  Level Washington Center
Mon 02:45:08 PM 36.4311 -76.3536 205° Southwest 405 466 38,000  Level Washington Center
Mon 02:46:09 PM 36.3306 -76.4119 206° Southwest 405 466 38,000  Level Washington Center
Mon 02:47:09 PM 36.2342 -76.4700 207° Southwest 405 466 38,000  Level Washington Center
Mon 02:48:09 PM 36.1378 -76.5308 205° Southwest 400 460 38,000  Level Washington Center
Mon 02:49:07 PM 36.0372 -76.5886 206° Southwest 395 455 38,000  Level Washington Center
Mon 02:50:07 PM 35.9386 -76.6489 206° Southwest 395 455 38,000  Level Washington Center
Mon 02:51:08 PM 35.8419 -76.7067 206° Southwest 395 455 38,000  Level Washington Center
Mon 02:52:09 PM 35.7456 -76.7642 205° Southwest 389 448 38,000  Level Washington Center
Mon 02:53:10 PM 35.6469 -76.8214 207° Southwest 389 448 38,000  Level Washington Center
Mon 02:54:07 PM 35.5544 -76.8789 206° Southwest 383 441 38,000  Level Washington Center
Mon 02:55:08 PM 35.4664 -76.9308 205° Southwest 391 450 38,000  Level Washington Center
Mon 02:56:09 PM 35.3697 -76.9853 206° Southwest 391 450 38,000  Level Washington Center
Mon 02:57:07 PM 35.2750 -77.0422 205° Southwest 386 444 38,000  Level Washington Center
Mon 02:58:08 PM 35.1764 -77.0989 206° Southwest 386 444 38,000  Level Washington Center
Mon 02:59:09 PM 35.0797 -77.1556 206° Southwest 386 444 38,000  Level Washington Center
Mon 03:00:09 PM 34.9744 -77.2169 205° Southwest 386 444 38,000  Level Washington Center
Mon 03:01:07 PM 34.8778 -77.2731 207° Southwest 386 444 38,000  Level Washington Center
Mon 03:02:07 PM 34.7936 -77.3244 206° Southwest 386 444 38,000  Level Washington Center
Mon 03:03:08 PM 34.6967 -77.3831 198° South 386 444 38,000  Level Washington Center
Mon 03:06:58 PM 34.2903 -77.5419 195° South 382 440 38,000  Level Jacksonville Center
Mon 03:07:58 PM 34.1811 -77.5764 195° South 389 448 38,000  Level Jacksonville Center
Mon 03:08:58 PM 34.0867 -77.6072 194° South 395 455 38,000  Level Jacksonville Center
Mon 03:09:58 PM 33.9794 -77.6386 196° South 395 455 38,000  Level Jacksonville Center
Mon 03:10:58 PM 33.8744 -77.6750 195° South 395 455 38,000  Level Jacksonville Center
Mon 03:11:58 PM 33.7694 -77.7089 195° South 384 442 38,000  Level Jacksonville Center
Mon 03:12:58 PM 33.6644 -77.7425 196° South 394 453 38,000  Level Jacksonville Center
Mon 03:13:58 PM 33.5575 -77.7786 195° South 399 459 38,000  Level Jacksonville Center
Mon 03:14:58 PM 33.4503 -77.8119 196° South 399 459 38,000  Level Jacksonville Center
Mon 03:15:58 PM 33.3433 -77.8481 194° South 399 459 38,000  Level Jacksonville Center
Mon 03:16:58 PM 33.2381 -77.8789 196° South 399 459 38,000  Level Jacksonville Center
Mon 03:17:58 PM 33.1331 -77.9144 195° South 390 449 38,000  Level Jacksonville Center
Mon 03:18:58 PM 33.0281 -77.9475 193° South 395 455 38,000  Level Jacksonville Center
Mon 03:19:58 PM 32.9186 -77.9783 196° South 395 455 38,000  Level Jacksonville Center
Mon 03:20:58 PM 32.8114 -78.0139 195° South 395 455 38,000  Level Jacksonville Center
Mon 03:21:58 PM 32.7061 -78.0467 196° South 395 455 38,000  Level Jacksonville Center
Mon 03:22:58 PM 32.6011 -78.0819 194° South 395 455 38,000  Level Jacksonville Center
Mon 03:23:58 PM 32.4939 -78.1147 196° South 395 455 38,000  Level Jacksonville Center
Mon 03:24:58 PM 32.3886 -78.1497 193° South 395 455 38,000  Level Jacksonville Center
Mon 03:25:58 PM 32.2792 -78.1800 197° South 395 455 38,000  Level Jacksonville Center
Mon 03:26:58 PM 32.1742 -78.2172 195° South 395 455 38,000  Level Jacksonville Center
Mon 03:27:58 PM 32.0711 -78.2494 192° South 395 455 38,000 -50 Level Jacksonville Center
Mon 03:28:58 PM 31.9697 -78.2742 195° South 390 449 37,900  Descending Jacksonville Center
Mon 03:29:58 PM 31.8664 -78.3061 195° South 390 449 38,000 50 Climbing Jacksonville Center
Mon 03:30:58 PM 31.7611 -78.3383 197° South 390 449 38,000  Level Jacksonville Center
Mon 03:31:58 PM 31.6539 -78.3778 194° South 396 456 38,000  Level Jacksonville Center
Mon 03:32:58 PM 31.5506 -78.4072 195° South 389 448 38,000 -50 Level Jacksonville Center
Mon 03:33:58 PM 31.4453 -78.4414 195° South 395 455 37,900  Descending Jacksonville Center
Mon 03:34:58 PM 31.3422 -78.4731 193° South 395 455 38,000 50 Climbing Jacksonville Center
Mon 03:35:58 PM 31.2408 -78.4997 197° South 390 449 38,000  Level Jacksonville Center
Mon 03:36:58 PM 31.1336 -78.5386 195° South 395 455 38,000  Level Jacksonville Center
Mon 03:37:58 PM 31.0303 -78.5700 194° South 395 455 38,000  Level Jacksonville Center
Mon 03:38:58 PM 30.9144 -78.6044 195° South 419 482 38,000 -50 Level Jacksonville Center
Mon 03:39:58 PM 30.8072 -78.6383 195° South 407 468 37,900  Descending Jacksonville Center
Mon 03:40:58 PM 30.6997 -78.6722 195° South 407 468 38,000 53 Climbing Jacksonville Center
Mon 03:41:51 PM 30.5914 -78.7058 198° South 402 463 38,000  Level Miami Center
Mon 03:42:51 PM 30.4889 -78.7450 197° South 418 481 38,000  Level Miami Center
Mon 03:43:51 PM 30.3861 -78.7817 196° South 406 467 38,000 -50 Level Miami Center
Mon 03:44:51 PM 30.2794 -78.8181 198° South 401 461 37,900 -50 Descending Miami Center
Mon 03:45:51 PM 30.1767 -78.8569 197° South 389 448 37,900  Level Miami Center
Mon 03:46:51 PM 30.0825 -78.8911 200° South 384 442 37,900 50 Level Miami Center
Mon 03:47:51 PM 29.9986 -78.9256 199° South 375 432 38,000 50 Climbing Miami Center
Mon 03:48:51 PM 29.9019 -78.9644 195° South 364 419 38,000  Level Miami Center
Mon 03:49:51 PM 29.8014 -78.9958 188° South 369 425 38,000  Level Miami Center
Mon 03:50:51 PM 29.6928 -79.0128 190° South 379 436 38,000  Level Miami Center
Mon 03:51:51 PM 29.5903 -79.0344 189° South 384 442 38,000  Level Miami Center
Mon 03:52:51 PM 29.4858 -79.0539 188° South 384 442 38,000  Level Miami Center
Mon 03:53:51 PM 29.3750 -79.0708 189° South 389 448 38,000  Level Miami Center
Mon 03:54:51 PM 29.2703 -79.0900 189° South 389 448 38,000  Level Miami Center
Mon 03:55:51 PM 29.1636 -79.1094 190° South 397 457 38,000  Level Miami Center
Mon 03:56:51 PM 29.0569 -79.1308 189° South 392 451 38,000  Level Miami Center
Mon 03:57:51 PM 28.9461 -79.1500 190° South 392 451 38,000  Level Miami Center
Mon 03:58:51 PM 28.8392 -79.1714 189° South 399 459 38,000  Level Miami Center
Mon 03:59:51 PM 28.7303 -79.1906 188° South 399 459 38,000 -250 Level Miami Center
Mon 04:00:51 PM 28.6175 -79.2094 190° South 404 465 37,500 -1,050 Descending Miami Center
Mon 04:01:51 PM 28.5106 -79.2308 188° South 404 465 35,900 -2,450 Descending Miami Center
Mon 04:02:51 PM 28.3975 -79.2497 190° South 409 471 32,600 -2,800 Descending Miami Center
Mon 04:03:51 PM 28.2928 -79.2711 202° Southwest 409 471 30,300 -1,700 Descending Miami Center
Mon 04:04:51 PM 28.1961 -79.3161 206° Southwest 387 445 29,200 -1,000 Descending Miami Center
Mon 04:05:51 PM 28.1075 -79.3658 204° Southwest 372 428 28,300 -950 Descending Miami Center
Mon 04:06:51 PM 28.0192 -79.4111 206° Southwest 362 417 27,300 -1,000 Descending Miami Center
Mon 04:07:51 PM 27.9306 -79.4608 205° Southwest 362 417 26,300 -1,450 Descending Miami Center
Mon 04:08:51 PM 27.8336 -79.5125 205° Southwest 355 409 24,400 -2,100 Descending Miami Center
Mon 04:09:51 PM 27.7450 -79.5597 205° Southwest 350 403 22,100 -2,350 Descending Miami Center
Mon 04:10:51 PM 27.6564 -79.6069 203° Southwest 350 403 19,700 -2,300 Descending Miami Center
Mon 04:11:51 PM 27.5764 -79.6447 206° Southwest 350 403 17,500 -2,250 Descending Miami Center
Mon 04:12:51 PM 27.4897 -79.6919 205° Southwest 345 397 15,200 -2,350 Descending Miami Center
Mon 04:13:51 PM 27.3969 -79.7411 206° Southwest 345 397 12,800 -2,250 Descending Miami Center
Mon 04:14:51 PM 27.3147 -79.7858 204° Southwest 345 397 10,700 -1,400 Descending Miami Center
Mon 04:15:51 PM 27.2367 -79.8258 204° Southwest 332 382 10,000 -1,000 Descending Miami Center
Mon 04:16:51 PM 27.1753 -79.8569 206° Southwest 287 330 8,700 -1,000 Descending Miami Center
Mon 04:17:51 PM 27.1100 -79.8925 202° Southwest 275 316 8,000 -450 Descending Miami Center
Mon 04:18:51 PM 27.0319 -79.9278 168° South 265 305 7,800 -750 Descending Miami Center
Mon 04:19:51 PM 26.9572 -79.9097 170° South 265 305 6,500 -1,150 Descending Miami Center
Mon 04:20:51 PM 26.8883 -79.8961 168° South 270 311 5,500 -900 Descending Miami Center
Mon 04:21:51 PM 26.8219 -79.8806 245° Southwest 265 305 4,700 -800 Descending Miami Center
Mon 04:29:15 PM 26.6987 -80.1794 102° East  Level FlightAware Approximate
Mon 04:30:15 PM 26.6773 -80.0640 102° East  Level Estimated

Login

Don't have an account? Register now (free) for customized features, flight alerts, and more!